Terminal Aerodrome Forecast
Issued by NWS

Home | Current Version | Previous Version | Text Only | Print | Product List | Glossary On
Versions: 1 2 3 4 5 6 7 8 9 10 11 12 13 14 15 16 17 18 19 20 21 22
000
FTUS41 KBOX 312320
TAFACK
TAF
KACK 312320Z 0100/0124 22007KT P6SM FEW005
     FM010300 22007KT 1/4SM FG BKN001
     FM010800 28007KT 1/4SM FG BKN003
     FM011100 02010KT 1/2SM FG SCT030
     FM011200 05012KT 1SM BR FEW030
     FM011300 03011KT P6SM FEW060=

USA.gov is the U.S. government's official web portal to all federal, state and local government web resources and services.